Warwick, North Dakota
Current Conditions -  °F | °C
As of 9:55 AM on Tuesday 21 Oct 2014 (Local Time) from KDVL Reporting Station
Clear Clear  
Wind Chill: 44°   Ceiling: Unl
Heat Index: 48°   Visibility: 10mi
Dew Point: 37°   Wind: 10mph
Humidity: 66%   Direction: 140°SE
Pressure: 29.89"   Gusts: NA
Location:  47.86°N, 98.71°W
Report Text: KDVL 211455Z AUTO 14009KT 10SM CLR 09/03 A2989 RMK AO1 57010
Loading
Personal Weather Stations






























Interactive Weather Map
Tropical Storm Tracking
New forecast layout! Learn more

10-Day Weather Forecast

Advertisements
Track Severe Weather on mobile